createdAt,value
2019-04-29T00:01:55.682Z,13.97
2019-04-29T00:04:22.727Z,15.10
2019-04-29T00:06:49.641Z,14.83
2019-04-29T00:09:17.330Z,14.60
2019-04-29T00:11:44.590Z,14.97
2019-04-29T00:14:11.739Z,13.90
2019-04-29T00:16:44.726Z,14.57
2019-04-29T00:19:36.963Z,14.27
2019-04-29T00:22:03.790Z,14.20
2019-04-29T00:24:30.859Z,14.87
2019-04-29T00:26:58.419Z,16.27
2019-04-29T00:29:25.771Z,15.53
2019-04-29T00:31:53.227Z,14.67
2019-04-29T00:34:20.579Z,15.27
2019-04-29T00:36:55.415Z,15.83
2019-04-29T00:39:41.196Z,15.23
2019-04-29T00:42:33.695Z,15.63
2019-04-29T00:45:01.095Z,16.13
2019-04-29T00:47:28.267Z,17.73
2019-04-29T00:49:55.903Z,15.20
2019-04-29T00:52:23.287Z,17.10
2019-04-29T00:54:56.038Z,16.03
2019-04-29T00:57:22.935Z,15.87
2019-04-29T00:59:50.449Z,15.30
2019-04-29T01:02:19.334Z,18.67
2019-04-29T01:04:47.406Z,17.00
2019-04-29T01:07:14.351Z,17.10
2019-04-29T01:09:41.399Z,16.90
2019-04-29T01:12:09.467Z,16.73
2019-04-29T01:14:37.127Z,17.43
2019-04-29T01:17:04.075Z,17.20
2019-04-29T01:19:31.304Z,16.90
2019-04-29T01:21:58.579Z,19.40
2019-04-29T01:24:25.523Z,17.70
2019-04-29T01:27:18.069Z,19.83
2019-04-29T01:29:44.969Z,18.07
2019-04-29T01:32:13.104Z,20.43
2019-04-29T01:34:47.136Z,20.97
2019-04-29T01:37:14.651Z,19.13
2019-04-29T01:39:50.137Z,20.93
2019-04-29T01:42:21.339Z,22.10
2019-04-29T01:44:48.283Z,20.20
2019-04-29T01:47:15.232Z,24.07
2019-04-29T01:49:42.175Z,21.20
2019-04-29T01:52:09.117Z,21.30
2019-04-29T01:54:36.470Z,24.00
2019-04-29T01:57:03.420Z,22.50
2019-04-29T01:59:30.670Z,22.40
2019-04-29T02:01:57.616Z,22.73
2019-04-29T02:04:24.248Z,20.23
2019-04-29T02:06:51.506Z,24.17
2019-04-29T02:09:32.325Z,22.30
2019-04-29T02:11:59.204Z,23.57
2019-04-29T02:14:26.283Z,25.00
2019-04-29T02:16:53.342Z,26.00
2019-04-29T02:19:19.980Z,25.77
2019-04-29T02:22:06.454Z,24.33
2019-04-29T02:24:34.687Z,26.00
2019-04-29T02:27:01.321Z,24.70
2019-04-29T02:29:28.258Z,25.77
2019-04-29T02:31:54.871Z,23.07
2019-04-29T02:34:21.495Z,24.33
2019-04-29T02:36:48.432Z,24.40
2019-04-29T02:39:39.055Z,25.83
2019-04-29T02:42:28.204Z,27.13
2019-04-29T02:44:57.783Z,25.70
2019-04-29T02:47:25.060Z,26.57
2019-04-29T02:49:53.285Z,27.30
2019-04-29T02:52:20.352Z,27.60
2019-04-29T02:54:47.631Z,28.03
2019-04-29T02:57:30.137Z,26.80
2019-04-29T03:00:03.149Z,29.00
2019-04-29T03:02:41.088Z,25.83
2019-04-29T03:05:11.256Z,26.23
2019-04-29T03:07:38.613Z,27.70
2019-04-29T03:10:05.855Z,25.83
2019-04-29T03:12:33.291Z,25.90
2019-04-29T03:15:00.365Z,25.67
2019-04-29T03:17:28.028Z,26.80
2019-04-29T03:20:29.611Z,29.87
2019-04-29T03:23:10.438Z,24.67
2019-04-29T03:25:37.569Z,27.57
2019-04-29T03:28:04.673Z,26.63
2019-04-29T03:30:31.691Z,25.47
2019-04-29T03:32:58.460Z,28.47
2019-04-29T03:35:25.996Z,25.90
2019-04-29T03:37:53.249Z,25.80
2019-04-29T03:40:20.549Z,24.27
2019-04-29T03:42:49.591Z,26.63
2019-04-29T03:45:16.953Z,25.80
2019-04-29T03:47:44.507Z,26.47
2019-04-29T03:50:11.583Z,27.00
2019-04-29T03:52:38.208Z,24.43
2019-04-29T03:55:05.250Z,23.70
2019-04-29T03:57:35.663Z,26.03
2019-04-29T04:00:03.742Z,24.80
2019-04-29T04:02:48.491Z,22.83
2019-04-29T04:05:25.484Z,25.50
2019-04-29T04:07:59.464Z,25.90
2019-04-29T04:10:27.148Z,25.37
2019-04-29T04:12:54.096Z,24.80
2019-04-29T04:15:21.092Z,26.10
2019-04-29T04:18:08.491Z,27.73
2019-04-29T04:20:35.413Z,24.80
2019-04-29T04:23:02.138Z,23.93
2019-04-29T04:25:29.813Z,24.17
2019-04-29T04:27:56.761Z,24.00
2019-04-29T04:30:24.007Z,24.33
2019-04-29T04:32:51.615Z,24.33
2019-04-29T04:35:18.480Z,25.10
2019-04-29T04:37:45.147Z,22.63
2019-04-29T04:40:15.064Z,22.80
2019-04-29T04:42:42.421Z,23.37
2019-04-29T04:45:12.135Z,22.73
2019-04-29T04:47:39.626Z,20.73
2019-04-29T04:50:06.844Z,23.20
2019-04-29T04:52:33.584Z,22.27
2019-04-29T04:55:02.570Z,23.50
2019-04-29T04:57:32.279Z,24.67
2019-04-29T04:59:59.531Z,22.77
2019-04-29T05:02:27.115Z,20.43
2019-04-29T05:04:54.339Z,23.80
2019-04-29T05:07:22.411Z,20.77
2019-04-29T05:09:50.279Z,22.90
2019-04-29T05:12:17.526Z,22.33
2019-04-29T05:14:44.904Z,21.10
2019-04-29T05:17:13.368Z,22.87
2019-04-29T05:19:40.620Z,20.70
2019-04-29T05:22:07.351Z,20.37
2019-04-29T05:24:34.024Z,21.83
2019-04-29T05:27:00.917Z,23.97
2019-04-29T05:29:28.823Z,22.70
2019-04-29T05:31:55.758Z,21.53
2019-04-29T05:34:25.050Z,22.63
2019-04-29T05:37:17.515Z,22.47
2019-04-29T05:39:45.114Z,22.67
2019-04-29T05:42:16.087Z,21.17
2019-04-29T05:45:01.287Z,23.70
2019-04-29T05:47:52.365Z,25.10
2019-04-29T05:50:52.166Z,21.60
2019-04-29T05:53:39.803Z,23.23
2019-04-29T05:56:07.180Z,24.60
2019-04-29T05:58:37.778Z,24.20
2019-04-29T06:01:14.132Z,24.97
2019-04-29T06:03:44.179Z,24.60
2019-04-29T06:06:12.320Z,24.97
2019-04-29T06:08:39.501Z,24.67
2019-04-29T06:11:07.995Z,25.30
2019-04-29T06:13:35.455Z,25.40
2019-04-29T06:16:02.114Z,26.00
2019-04-29T06:18:29.082Z,25.07
2019-04-29T06:21:08.411Z,25.67
2019-04-29T06:23:26.405Z,25.73
2019-04-29T06:25:53.763Z,26.07
2019-04-29T06:28:21.621Z,26.23
2019-04-29T06:30:51.980Z,24.73
2019-04-29T06:33:19.034Z,24.57
2019-04-29T06:35:47.436Z,24.53
2019-04-29T06:38:14.254Z,24.40
2019-04-29T06:40:40.878Z,23.20
2019-04-29T06:43:07.863Z,25.33
2019-04-29T06:45:34.514Z,24.10
2019-04-29T06:48:03.337Z,26.13
2019-04-29T06:50:31.479Z,25.90
2019-04-29T06:52:58.875Z,25.63
2019-04-29T06:55:25.809Z,26.90
2019-04-29T06:57:54.691Z,25.20
2019-04-29T07:00:23.804Z,23.77
2019-04-29T07:02:51.099Z,23.87
2019-04-29T07:05:17.984Z,25.03
2019-04-29T07:07:44.972Z,22.40
2019-04-29T07:10:11.623Z,24.17
2019-04-29T07:12:38.368Z,27.00
2019-04-29T07:15:07.667Z,26.47
2019-04-29T07:17:36.470Z,24.93
2019-04-29T07:20:03.833Z,25.20
2019-04-29T07:22:31.753Z,23.20
2019-04-29T07:24:58.433Z,23.67
2019-04-29T07:27:25.064Z,22.63
2019-04-29T07:29:52.059Z,22.97
2019-04-29T07:32:18.679Z,24.07
2019-04-29T07:34:45.310Z,25.17
2019-04-29T07:37:12.246Z,27.30
2019-04-29T07:39:39.353Z,24.60
2019-04-29T07:42:06.351Z,25.37
2019-04-29T07:44:44.219Z,26.83
2019-04-29T07:47:09.524Z,25.47
2019-04-29T07:49:36.539Z,25.90
2019-04-29T07:52:03.456Z,25.77
2019-04-29T07:54:31.528Z,25.60
2019-04-29T07:56:59.187Z,26.40
2019-04-29T07:59:26.547Z,27.37
2019-04-29T08:01:55.652Z,28.43
2019-04-29T08:04:22.552Z,29.70
2019-04-29T08:06:49.571Z,28.23
2019-04-29T08:09:16.404Z,27.20
2019-04-29T08:11:43.150Z,27.33
2019-04-29T08:14:10.391Z,25.87
2019-04-29T08:16:37.335Z,28.37
2019-04-29T08:19:05.656Z,26.87
2019-04-29T08:21:33.233Z,25.97
2019-04-29T08:24:00.181Z,26.73
2019-04-29T08:26:27.556Z,25.87
2019-04-29T08:29:00.318Z,26.57
2019-04-29T08:31:23.683Z,21.87
2019-04-29T08:33:50.617Z,23.60
2019-04-29T08:36:18.304Z,23.47
2019-04-29T08:38:45.639Z,21.83
2019-04-29T08:41:13.616Z,23.80
2019-04-29T08:44:15.381Z,24.00
2019-04-29T08:46:32.748Z,25.00
2019-04-29T08:49:01.239Z,23.83
2019-04-29T08:51:28.448Z,24.37
2019-04-29T08:53:55.451Z,23.87
2019-04-29T08:56:22.411Z,24.67
2019-04-29T08:58:51.070Z,25.47
2019-04-29T09:01:18.076Z,23.63
2019-04-29T09:03:46.122Z,23.90
2019-04-29T09:06:13.091Z,25.37
2019-04-29T09:08:54.110Z,24.90
2019-04-29T09:11:12.969Z,24.90
2019-04-29T09:13:37.791Z,27.33
2019-04-29T09:16:04.408Z,22.77
2019-04-29T09:18:31.682Z,27.23
2019-04-29T09:20:58.628Z,26.67
2019-04-29T09:23:28.031Z,25.70
2019-04-29T09:26:13.325Z,27.17
2019-04-29T09:28:41.240Z,26.67
2019-04-29T09:31:07.871Z,26.60
2019-04-29T09:33:34.612Z,24.90
2019-04-29T09:36:02.309Z,29.70
2019-04-29T09:38:32.548Z,29.03
2019-04-29T09:41:04.107Z,29.07
2019-04-29T09:43:53.351Z,25.20
2019-04-29T09:46:24.290Z,29.87
2019-04-29T09:48:51.843Z,29.10
2019-04-29T09:51:22.911Z,28.70
2019-04-29T09:53:48.018Z,29.47
2019-04-29T09:56:14.639Z,29.60
2019-04-29T09:58:41.262Z,31.53
2019-04-29T10:01:18.690Z,32.70
2019-04-29T10:04:09.729Z,32.23
2019-04-29T10:06:50.638Z,32.20
2019-04-29T10:09:17.687Z,34.07
2019-04-29T10:11:44.628Z,33.40
2019-04-29T10:14:13.007Z,34.03
2019-04-29T10:16:52.471Z,32.63
2019-04-29T10:19:28.164Z,34.33
2019-04-29T10:21:55.150Z,35.33
2019-04-29T10:24:22.700Z,34.47
2019-04-29T10:26:49.419Z,35.53
2019-04-29T10:29:20.329Z,35.43
2019-04-29T10:31:47.207Z,34.90
2019-04-29T10:34:14.311Z,34.03
2019-04-29T10:36:41.319Z,32.30
2019-04-29T10:39:29.100Z,34.90
2019-04-29T10:41:56.808Z,33.70
2019-04-29T10:44:37.671Z,33.90
2019-04-29T10:47:28.485Z,34.60
2019-04-29T10:49:59.628Z,32.77
2019-04-29T10:52:26.598Z,34.37
2019-04-29T10:54:55.504Z,33.80
2019-04-29T10:57:23.608Z,33.77
2019-04-29T10:59:53.587Z,34.50
2019-04-29T11:02:40.018Z,35.30
2019-04-29T11:05:28.524Z,35.67
2019-04-29T11:08:11.177Z,33.90
2019-04-29T11:10:38.199Z,36.50
2019-04-29T11:13:05.043Z,33.47
2019-04-29T11:15:36.919Z,31.93
2019-04-29T11:18:04.102Z,34.47
2019-04-29T11:20:32.435Z,33.23
2019-04-29T11:23:09.116Z,33.30
2019-04-29T11:25:55.015Z,33.60
2019-04-29T11:28:21.756Z,32.07
2019-04-29T11:30:49.703Z,30.87
2019-04-29T11:33:22.376Z,33.40
2019-04-29T11:36:15.652Z,36.47
2019-04-29T11:38:44.145Z,33.10
2019-04-29T11:41:12.243Z,30.90
2019-04-29T11:43:39.419Z,32.43
2019-04-29T11:46:09.981Z,30.37
2019-04-29T11:48:34.595Z,30.17
2019-04-29T11:51:19.395Z,31.50
2019-04-29T11:53:46.003Z,27.30
2019-04-29T11:56:13.722Z,25.63
2019-04-29T11:59:08.458Z,25.30
2019-04-29T12:02:13.297Z,27.70
2019-04-29T12:04:46.415Z,24.20
2019-04-29T12:07:13.664Z,25.03
2019-04-29T12:09:40.915Z,24.60
2019-04-29T12:12:12.639Z,23.40
2019-04-29T12:14:43.421Z,23.63
2019-04-29T12:17:18.747Z,22.60
2019-04-29T12:19:47.140Z,19.30
2019-04-29T12:22:26.858Z,18.90
2019-04-29T12:24:43.475Z,18.10
2019-04-29T12:27:14.860Z,17.53
2019-04-29T12:29:41.663Z,17.77
2019-04-29T12:32:20.776Z,15.67
2019-04-29T12:34:59.059Z,14.90
2019-04-29T12:38:00.758Z,14.40
2019-04-29T12:40:57.807Z,13.60
2019-04-29T12:43:54.095Z,13.80
2019-04-29T12:46:27.751Z,13.40
2019-04-29T12:48:54.377Z,14.13
2019-04-29T12:51:21.349Z,12.43
2019-04-29T12:53:49.603Z,14.00
2019-04-29T12:56:18.924Z,12.77
2019-04-29T12:58:50.430Z,13.60
2019-04-29T13:01:50.359Z,14.20
2019-04-29T13:04:05.014Z,12.63
2019-04-29T13:06:57.988Z,13.27
2019-04-29T13:09:34.825Z,13.57
2019-04-29T13:12:17.978Z,12.60
2019-04-29T13:14:33.129Z,13.73
2019-04-29T13:17:14.448Z,13.03
2019-04-29T13:19:45.854Z,13.03
2019-04-29T13:22:15.625Z,12.57
2019-04-29T13:24:42.713Z,13.03
2019-04-29T13:27:16.211Z,12.60
2019-04-29T13:29:39.267Z,12.90
2019-04-29T13:32:06.672Z,13.50
2019-04-29T13:34:39.366Z,13.00
2019-04-29T13:37:07.741Z,12.93
2019-04-29T13:39:39.844Z,14.10
2019-04-29T13:42:09.281Z,14.33
2019-04-29T13:44:32.893Z,13.43
2019-04-29T13:47:14.485Z,12.70
2019-04-29T13:49:49.414Z,13.07
2019-04-29T13:52:16.821Z,12.80
2019-04-29T13:54:44.301Z,13.03
2019-04-29T13:57:15.810Z,12.80
2019-04-29T13:59:50.627Z,13.60
2019-04-29T14:02:32.392Z,14.60
2019-04-29T14:05:02.222Z,12.33
2019-04-29T14:07:30.287Z,12.80
2019-04-29T14:09:57.623Z,12.43
2019-04-29T14:12:47.751Z,14.40
2019-04-29T14:14:53.901Z,13.23
2019-04-29T14:17:26.533Z,12.83
2019-04-29T14:19:51.524Z,13.67
2019-04-29T14:22:22.394Z,14.30
2019-04-29T14:24:47.297Z,14.10
2019-04-29T14:27:24.719Z,13.40
2019-04-29T14:29:44.207Z,12.97
2019-04-29T14:32:11.463Z,13.50
2019-04-29T14:34:43.847Z,14.00
2019-04-29T14:37:21.459Z,15.00
2019-04-29T14:39:39.284Z,14.10
2019-04-29T14:42:29.683Z,14.47
2019-04-29T14:45:02.347Z,14.03
2019-04-29T14:47:49.047Z,14.23
2019-04-29T14:50:20.511Z,14.60
2019-04-29T14:52:49.380Z,14.40
2019-04-29T14:55:20.213Z,14.80
2019-04-29T14:57:44.323Z,16.37
2019-04-29T15:00:21.510Z,14.70
2019-04-29T15:02:48.280Z,13.93
2019-04-29T15:05:15.482Z,14.57
2019-04-29T15:07:42.306Z,14.33
2019-04-29T15:10:09.496Z,15.13
2019-04-29T15:13:06.701Z,14.95
2019-04-29T15:15:37.039Z,13.87
2019-04-29T15:18:16.043Z,13.83
2019-04-29T15:20:56.797Z,14.27
2019-04-29T15:23:28.865Z,13.40
2019-04-29T15:25:56.431Z,14.80
2019-04-29T15:28:23.830Z,15.07
2019-04-29T15:30:50.571Z,14.07
2019-04-29T15:33:17.199Z,14.53
2019-04-29T15:35:43.947Z,14.70
2019-04-29T15:38:10.985Z,14.10
2019-04-29T15:40:43.169Z,13.53
2019-04-29T15:43:06.602Z,13.80
2019-04-29T15:45:34.259Z,12.70
2019-04-29T15:48:01.367Z,13.93
2019-04-29T15:50:32.597Z,13.60
2019-04-29T15:53:02.525Z,13.47
2019-04-29T15:55:27.799Z,13.50
2019-04-29T15:57:55.164Z,12.67
2019-04-29T16:00:23.155Z,14.43
2019-04-29T16:02:51.974Z,12.90
2019-04-29T16:05:56.039Z,12.53
2019-04-29T16:08:30.128Z,13.10
2019-04-29T16:11:33.341Z,13.67
2019-04-29T16:14:09.323Z,13.50
2019-04-29T16:16:29.777Z,14.20
2019-04-29T16:19:07.131Z,14.30
2019-04-29T16:21:25.503Z,13.80
2019-04-29T16:23:57.516Z,14.73
2019-04-29T16:26:24.865Z,14.00
2019-04-29T16:28:50.247Z,13.93
2019-04-29T16:31:18.408Z,11.83
2019-04-29T16:33:47.455Z,13.80
2019-04-29T16:36:14.065Z,15.00
2019-04-29T16:38:46.288Z,13.23
2019-04-29T16:41:22.270Z,12.03
2019-04-29T16:43:49.435Z,14.93
2019-04-29T16:46:35.392Z,14.60
2019-04-29T16:48:54.571Z,12.77
2019-04-29T16:51:21.232Z,12.43
2019-04-29T16:53:48.252Z,12.07
2019-04-29T16:58:44.392Z,14.03
2019-04-29T17:01:13.179Z,12.57
2019-04-29T17:03:39.947Z,13.07
2019-04-29T17:06:06.643Z,12.57
2019-04-29T17:09:03.029Z,12.40
2019-04-29T17:11:25.825Z,11.33
2019-04-29T17:13:53.652Z,11.30
2019-04-29T17:16:22.484Z,10.03
2019-04-29T17:18:49.328Z,11.60
2019-04-29T17:21:16.516Z,10.90
2019-04-29T17:23:43.188Z,10.30
2019-04-29T17:26:11.619Z,11.23
2019-04-29T17:28:58.787Z,11.00
2019-04-29T17:31:41.931Z,11.30
2019-04-29T17:34:54.341Z,10.30
2019-04-29T17:35:15.989Z,12.97
2019-04-29T17:36:49.629Z,10.50
2019-04-29T17:39:17.708Z,11.10
2019-04-29T17:41:45.647Z,11.20
2019-04-29T17:44:29.151Z,11.73
2019-04-29T17:47:14.341Z,14.43
2019-04-29T17:50:06.530Z,10.10
2019-04-29T17:52:31.402Z,7.87
2019-04-29T17:55:07.878Z,6.93
2019-04-29T17:57:39.667Z,5.70
2019-04-29T18:00:41.477Z,8.47
2019-04-29T18:03:20.304Z,6.83
2019-04-29T18:06:01.839Z,5.90
2019-04-29T18:08:36.360Z,6.53
2019-04-29T18:11:07.825Z,5.37
2019-04-29T18:13:32.570Z,6.30
2019-04-29T18:16:04.633Z,6.17
2019-04-29T18:18:46.428Z,6.47
2019-04-29T18:21:26.072Z,5.73
2019-04-29T18:24:09.572Z,5.53
2019-04-29T18:26:52.904Z,6.80
2019-04-29T18:29:19.799Z,6.70
2019-04-29T18:31:46.706Z,6.10
2019-04-29T18:34:15.313Z,4.77
2019-04-29T18:36:46.280Z,4.77
2019-04-29T18:39:20.193Z,5.10
2019-04-29T18:41:47.139Z,4.97
2019-04-29T18:44:19.356Z,5.03
2019-04-29T18:46:45.957Z,6.07
2019-04-29T18:49:11.243Z,5.27
2019-04-29T18:51:37.880Z,5.33
2019-04-29T18:54:06.053Z,4.40
2019-04-29T18:56:36.329Z,5.73
2019-04-29T18:59:01.946Z,5.40
2019-04-29T19:01:30.364Z,6.10
2019-04-29T19:04:13.706Z,4.20
2019-04-29T19:06:40.547Z,4.63
2019-04-29T19:09:18.004Z,5.47
2019-04-29T19:11:39.663Z,4.90
2019-04-29T19:14:07.521Z,4.27
2019-04-29T19:16:35.899Z,4.57
2019-04-29T19:19:02.921Z,4.67
2019-04-29T19:21:31.473Z,5.57
2019-04-29T19:24:00.756Z,5.67
2019-04-29T19:26:30.127Z,4.60
2019-04-29T19:29:01.290Z,4.73
2019-04-29T19:31:28.519Z,4.77
2019-04-29T19:33:57.379Z,4.70
2019-04-29T19:36:24.816Z,5.37
2019-04-29T19:38:52.019Z,4.50
2019-04-29T19:41:20.017Z,5.07
2019-04-29T19:43:48.367Z,6.07
2019-04-29T19:46:24.356Z,4.90
2019-04-29T19:48:46.043Z,4.97
2019-04-29T19:51:16.034Z,4.90
2019-04-29T19:53:43.469Z,5.33
2019-04-29T19:56:12.539Z,6.40
2019-04-29T19:58:41.286Z,5.13
2019-04-29T20:01:13.796Z,6.00
2019-04-29T20:03:50.235Z,5.90
2019-04-29T20:06:25.146Z,5.37
2019-04-29T20:08:53.953Z,5.10
2019-04-29T20:11:18.799Z,5.87
2019-04-29T20:14:00.882Z,6.17
2019-04-29T20:16:43.340Z,5.90
2019-04-29T20:19:21.409Z,7.20
2019-04-29T20:21:48.994Z,6.07
2019-04-29T20:24:17.906Z,6.60
2019-04-29T20:26:46.865Z,7.60
2019-04-29T20:29:15.915Z,5.50
2019-04-29T20:31:48.660Z,7.60
2019-04-29T20:34:11.672Z,6.57
2019-04-29T20:36:42.850Z,7.23
2019-04-29T20:39:15.246Z,7.13
2019-04-29T20:41:41.349Z,7.30
2019-04-29T20:44:09.277Z,7.67
2019-04-29T20:46:45.426Z,6.60
2019-04-29T20:49:05.756Z,7.50
2019-04-29T20:51:48.753Z,6.70
2019-04-29T20:54:15.784Z,7.43
2019-04-29T20:56:39.147Z,7.90
2019-04-29T20:59:09.338Z,7.47
2019-04-29T21:01:43.332Z,6.80
2019-04-29T21:04:06.107Z,7.77
2019-04-29T21:06:39.201Z,6.43
2019-04-29T21:09:02.105Z,6.67
2019-04-29T21:11:47.061Z,6.73
2019-04-29T21:14:20.091Z,6.63
2019-04-29T21:16:48.476Z,7.17
2019-04-29T21:19:15.536Z,7.73
2019-04-29T21:21:45.469Z,6.90
2019-04-29T21:24:13.861Z,6.70
2019-04-29T21:26:44.651Z,7.60
2019-04-29T21:29:10.754Z,7.70
2019-04-29T21:31:38.495Z,7.20
2019-04-29T21:34:05.691Z,7.77
2019-04-29T21:36:45.357Z,7.10
2019-04-29T21:39:25.052Z,7.23
2019-04-29T21:42:03.492Z,7.27
2019-04-29T21:44:30.502Z,7.47
2019-04-29T21:46:59.683Z,7.00
2019-04-29T21:49:26.463Z,7.60
2019-04-29T21:51:53.082Z,8.60
2019-04-29T21:54:19.729Z,7.60
2019-04-29T21:56:48.179Z,8.57
2019-04-29T21:59:15.722Z,8.27
2019-04-29T22:01:44.842Z,7.37
2019-04-29T22:04:12.548Z,8.30
2019-04-29T22:06:39.816Z,8.50
2019-04-29T22:09:08.050Z,8.37
2019-04-29T22:11:43.050Z,8.27
2019-04-29T22:14:05.572Z,9.20
2019-04-29T22:16:35.617Z,7.83
2019-04-29T22:19:02.739Z,9.30
2019-04-29T22:21:29.763Z,8.40
2019-04-29T22:23:56.716Z,8.83
2019-04-29T22:26:26.728Z,9.93
2019-04-29T22:28:53.498Z,8.90
2019-04-29T22:31:26.970Z,9.20
2019-04-29T22:33:51.860Z,9.10
2019-04-29T22:36:19.835Z,9.60
2019-04-29T22:38:52.036Z,9.87
2019-04-29T22:41:26.477Z,10.13
2019-04-29T22:43:58.180Z,10.03
2019-04-29T22:46:27.842Z,10.17
2019-04-29T22:48:55.785Z,8.60
2019-04-29T22:51:23.319Z,9.07
2019-04-29T22:53:50.255Z,10.13
2019-04-29T22:56:17.199Z,10.03
2019-04-29T22:58:45.582Z,10.90
2019-04-29T23:01:15.583Z,9.90
2019-04-29T23:03:43.001Z,9.30
2019-04-29T23:06:09.837Z,10.50
2019-04-29T23:08:38.177Z,10.90
2019-04-29T23:11:05.547Z,10.03
2019-04-29T23:13:32.624Z,11.03
2019-04-29T23:16:02.146Z,12.33
2019-04-29T23:18:40.972Z,11.47
2019-04-29T23:21:21.158Z,12.30
2019-04-29T23:23:50.359Z,11.97
2019-04-29T23:26:18.130Z,10.90
2019-04-29T23:28:45.731Z,13.00
2019-04-29T23:31:12.491Z,11.10
2019-04-29T23:33:39.771Z,12.10
2019-04-29T23:36:09.662Z,11.37
2019-04-29T23:38:38.670Z,12.03
2019-04-29T23:41:07.103Z,11.37
2019-04-29T23:43:35.558Z,13.40
2019-04-29T23:46:04.839Z,12.83
2019-04-29T23:48:38.911Z,11.53
2019-04-29T23:51:01.283Z,12.47
2019-04-29T23:53:28.536Z,12.07
2019-04-29T23:55:55.667Z,11.23
2019-04-29T23:58:49.369Z,11.67
